Time;durP1;ratioP1;P1;durP2;ratioP2;P2;SDS_P1;SDS_P2;PMS_P1;PMS_P2;Temp;Humidity;BMP_temperature;BMP_pressure;BME280_temperature;BME280_humidity;BME280_pressure;Samples;Min_cycle;Max_cycle;Signal;HPM_P1;HPM_P2
2022/08/22 00:01:07;;;;;;;7.80;2.53;;;18.20;99.90;;;;;;5032867;28;20056;-78
2022/08/22 00:03:47;;;;;;;6.53;2.45;;;18.20;99.90;;;;;;5033390;28;20045;-78
2022/08/22 00:06:16;;;;;;;7.18;2.60;;;18.20;99.90;;;;;;5033754;28;20057;-78
2022/08/22 00:09:04;;;;;;;7.22;2.60;;;18.20;99.90;;;;;;5033578;28;20037;-78
2022/08/22 00:11:42;;;;;;;8.23;2.83;;;18.10;99.90;;;;;;5033536;28;20061;-78
2022/08/22 00:14:26;;;;;;;7.03;2.50;;;18.10;99.90;;;;;;5033402;28;20041;-78
2022/08/22 00:17:05;;;;;;;5.70;2.63;;;18.10;99.90;;;;;;5032765;28;20400;-78
2022/08/22 00:19:42;;;;;;;7.97;2.58;;;18.00;99.90;;;;;;5033615;28;20050;-78
2022/08/22 00:22:23;;;;;;;7.35;2.63;;;18.10;99.90;;;;;;5033628;28;20049;-78
2022/08/22 00:25:15;;;;;;;7.75;2.47;;;18.00;99.90;;;;;;5033504;28;20049;-78
2022/08/22 00:27:52;;;;;;;9.45;2.58;;;18.00;99.90;;;;;;5033455;28;20085;-78
2022/08/22 00:30:18;;;;;;;10.87;2.83;;;18.00;99.90;;;;;;5037098;28;20052;-78
2022/08/22 00:32:58;;;;;;;5.43;2.25;;;18.00;99.90;;;;;;5037015;28;20295;-78
2022/08/22 00:35:40;;;;;;;7.00;2.45;;;18.00;99.90;;;;;;5037413;28;20060;-78
2022/08/22 00:38:17;;;;;;;4.60;2.30;;;18.00;99.90;;;;;;5036818;28;20045;-78
2022/08/22 00:40:55;;;;;;;6.85;2.83;;;18.00;99.90;;;;;;5037178;28;20046;-78
2022/08/22 00:43:58;;;;;;;6.53;2.50;;;17.90;99.90;;;;;;5036892;28;20045;-78
2022/08/22 00:46:36;;;;;;;6.63;2.58;;;17.80;99.90;;;;;;5036795;28;20057;-78
2022/08/22 00:49:33;;;;;;;7.18;2.22;;;17.80;99.90;;;;;;5036766;28;20136;-78
2022/08/22 00:52:15;;;;;;;5.90;2.38;;;17.80;99.90;;;;;;5037162;28;20050;-78
2022/08/22 00:54:50;;;;;;;7.50;2.47;;;17.80;99.90;;;;;;5037236;28;20052;-78
2022/08/22 00:57:23;;;;;;;6.40;2.40;;;17.70;99.90;;;;;;5036587;28;20049;-78
2022/08/22 01:00:19;;;;;;;7.30;2.65;;;17.70;99.90;;;;;;5036765;28;20443;-78
2022/08/22 01:03:15;;;;;;;8.80;2.90;;;17.80;99.90;;;;;;5036508;28;20038;-78
2022/08/22 01:06:12;;;;;;;9.73;2.55;;;17.80;99.90;;;;;;5035495;28;20099;-78
2022/08/22 01:09:04;;;;;;;6.70;2.60;;;17.80;99.90;;;;;;5037119;28;20060;-78
2022/08/22 01:11:47;;;;;;;6.18;2.55;;;17.80;99.90;;;;;;5035909;28;20062;-78
2022/08/22 01:14:33;;;;;;;6.40;2.67;;;17.80;99.90;;;;;;5036342;28;20053;-78
2022/08/22 01:17:36;;;;;;;7.68;2.60;;;17.80;99.90;;;;;;5036697;28;20049;-79
2022/08/22 01:20:38;;;;;;;5.65;2.60;;;17.80;99.90;;;;;;5036075;28;20045;-78
2022/08/22 01:23:29;;;;;;;6.80;2.58;;;17.70;99.90;;;;;;5036114;28;20049;-78
2022/08/22 01:26:28;;;;;;;6.38;2.78;;;17.70;99.90;;;;;;5035924;28;20045;-78
2022/08/22 01:29:13;;;;;;;8.68;2.83;;;17.70;99.90;;;;;;5036177;28;20093;-78
2022/08/22 01:32:06;;;;;;;6.07;2.38;;;17.70;99.90;;;;;;5036131;28;20045;-78
2022/08/22 01:35:02;;;;;;;7.20;2.67;;;17.70;99.90;;;;;;5035850;28;20037;-78
2022/08/22 01:37:40;;;;;;;8.20;3.20;;;17.70;99.90;;;;;;5035814;28;20127;-78
2022/08/22 01:40:53;;;;;;;6.43;2.80;;;17.70;99.90;;;;;;5034507;28;20520;-78
2022/08/22 01:43:34;;;;;;;9.13;3.00;;;17.70;99.90;;;;;;5034742;28;20095;-78
2022/08/22 01:46:05;;;;;;;7.57;3.13;;;17.70;99.90;;;;;;5034492;28;20049;-78
2022/08/22 01:48:45;;;;;;;9.05;3.00;;;17.70;99.90;;;;;;5035514;28;20091;-78
2022/08/22 01:51:12;;;;;;;11.23;3.67;;;17.60;99.90;;;;;;5035437;28;20091;-78
2022/08/22 01:54:04;;;;;;;7.63;2.88;;;17.60;99.90;;;;;;5035479;28;20132;-78
2022/08/22 01:56:38;;;;;;;8.90;3.30;;;17.60;99.90;;;;;;5035347;28;20046;-78
2022/08/22 01:59:10;;;;;;;7.88;3.10;;;17.60;99.90;;;;;;5035419;28;20048;-78
2022/08/22 02:01:53;;;;;;;7.30;2.72;;;17.60;99.90;;;;;;5035815;28;20041;-78
2022/08/22 02:04:47;;;;;;;6.68;2.83;;;17.60;99.90;;;;;;5035453;28;20044;-78
2022/08/22 02:07:43;;;;;;;8.27;2.75;;;17.60;99.90;;;;;;5035707;28;20046;-78
2022/08/22 02:10:21;;;;;;;7.82;3.20;;;17.60;99.90;;;;;;5035148;28;20072;-78
2022/08/22 02:13:12;;;;;;;7.97;3.10;;;17.50;99.90;;;;;;5033810;28;20188;-78
2022/08/22 02:15:37;;;;;;;7.80;3.00;;;17.60;99.90;;;;;;5035559;28;20052;-78
2022/08/22 02:18:07;;;;;;;11.30;3.30;;;17.50;99.90;;;;;;5034983;28;20049;-78
2022/08/22 02:20:57;;;;;;;8.75;3.17;;;17.50;99.90;;;;;;5034098;28;20061;-78
2022/08/22 02:23:51;;;;;;;6.75;2.78;;;17.50;99.90;;;;;;5035111;28;20053;-78
2022/08/22 02:26:20;;;;;;;8.65;2.80;;;17.50;99.90;;;;;;5035353;28;20049;-78
2022/08/22 02:29:27;;;;;;;5.22;2.80;;;17.50;99.90;;;;;;5034738;28;20042;-78
2022/08/22 02:31:59;;;;;;;7.03;2.95;;;17.50;99.90;;;;;;5001022;28;20115;-78
2022/08/22 02:34:35;;;;;;;6.55;2.95;;;17.40;99.90;;;;;;5035328;28;20060;-78
2022/08/22 02:37:14;;;;;;;6.22;2.70;;;17.40;99.90;;;;;;5034741;28;20045;-78
2022/08/22 02:40:03;;;;;;;6.43;2.85;;;17.40;99.90;;;;;;5034769;28;20447;-78
2022/08/22 02:42:48;;;;;;;8.90;3.20;;;17.40;99.90;;;;;;5034507;28;20456;-78
2022/08/22 02:45:37;;;;;;;8.57;3.17;;;17.40;99.90;;;;;;5035048;28;20045;-78
2022/08/22 02:48:43;;;;;;;7.45;3.05;;;17.30;99.90;;;;;;5034441;28;20076;-78
2022/08/22 02:51:28;;;;;;;8.63;3.47;;;17.30;99.90;;;;;;5034843;28;20392;-78
2022/08/22 02:54:07;;;;;;;7.20;2.88;;;17.30;99.90;;;;;;5034548;28;20495;-78
2022/08/22 02:56:43;;;;;;;5.82;2.97;;;17.30;99.90;;;;;;5034505;28;20076;-77
2022/08/22 02:59:34;;;;;;;7.55;2.80;;;17.30;99.90;;;;;;5034393;28;20441;-78
2022/08/22 03:02:26;;;;;;;5.90;2.67;;;17.30;99.90;;;;;;5034662;28;20096;-78
2022/08/22 03:04:58;;;;;;;8.32;3.28;;;17.30;99.90;;;;;;5034237;28;20400;-78
2022/08/22 03:07:32;;;;;;;7.07;2.80;;;17.30;99.90;;;;;;5034127;28;20476;-78
2022/08/22 03:10:17;;;;;;;7.97;3.42;;;17.30;99.90;;;;;;5034249;28;20045;-78
2022/08/22 03:12:51;;;;;;;6.93;2.60;;;17.30;99.90;;;;;;5034319;28;20092;-78
2022/08/22 03:15:46;;;;;;;8.57;3.00;;;17.30;99.90;;;;;;5034128;28;20092;-78
2022/08/22 03:18:11;;;;;;;7.28;3.33;;;17.30;99.90;;;;;;5031381;28;20412;-78
2022/08/22 03:20:52;;;;;;;9.27;2.87;;;17.30;99.90;;;;;;5034734;28;20047;-77
2022/08/22 03:23:43;;;;;;;8.25;3.22;;;17.30;99.90;;;;;;5034508;28;20045;-78
2022/08/22 03:26:24;;;;;;;5.57;3.15;;;17.30;99.90;;;;;;5034119;28;20046;-78
2022/08/22 03:28:56;;;;;;;9.32;3.40;;;17.40;99.90;;;;;;5034061;28;20045;-78
2022/08/22 03:31:24;;;;;;;7.88;3.92;;;17.40;99.90;;;;;;5034026;28;20053;-78
2022/08/22 03:34:19;;;;;;;6.68;3.80;;;17.40;99.90;;;;;;5033943;28;20485;-78
2022/08/22 03:37:10;;;;;;;11.18;4.13;;;17.30;99.90;;;;;;5033873;28;20054;-78
2022/08/22 03:39:46;;;;;;;7.03;3.80;;;17.30;99.90;;;;;;5027134;28;20054;-78
2022/08/22 03:42:15;;;;;;;9.68;4.93;;;17.20;99.90;;;;;;5033132;28;20175;-78
2022/08/22 03:45:18;;;;;;;7.85;3.65;;;17.20;99.90;;;;;;5016278;28;20139;-78
2022/08/22 03:48:02;;;;;;;8.38;3.83;;;17.20;99.90;;;;;;5034078;28;20048;-78
2022/08/22 03:51:04;;;;;;;7.30;3.78;;;17.20;99.90;;;;;;5034059;28;20056;-78
2022/08/22 03:53:39;;;;;;;9.93;4.28;;;17.20;99.90;;;;;;5033512;28;20049;-78
2022/08/22 03:56:38;;;;;;;9.60;4.20;;;17.30;99.90;;;;;;5033097;28;20133;-78
2022/08/22 03:59:06;;;;;;;10.32;3.80;;;17.30;99.90;;;;;;5032817;28;20461;-78
2022/08/22 04:01:35;;;;;;;7.93;4.10;;;17.30;99.90;;;;;;5033691;28;20045;-78
2022/08/22 04:04:21;;;;;;;6.13;3.15;;;17.30;99.90;;;;;;5035604;28;20092;-78
2022/08/22 04:06:54;;;;;;;8.45;3.90;;;17.30;99.90;;;;;;5037459;28;20085;-78
2022/08/22 04:09:41;;;;;;;9.60;4.30;;;17.30;99.90;;;;;;5037373;28;20056;-78
2022/08/22 04:12:28;;;;;;;9.15;4.55;;;17.20;99.90;;;;;;5037639;28;20061;-78
2022/08/22 04:15:35;;;;;;;10.35;4.25;;;17.20;99.90;;;;;;5037398;28;20088;-78
2022/08/22 04:18:25;;;;;;;13.15;4.78;;;17.20;99.90;;;;;;5035462;28;20062;-78
2022/08/22 04:21:22;;;;;;;9.43;4.43;;;17.20;99.90;;;;;;5037200;28;20049;-78
2022/08/22 04:24:07;;;;;;;10.52;4.43;;;17.20;99.90;;;;;;5037688;28;20447;-78
2022/08/22 04:26:56;;;;;;;8.98;4.15;;;17.20;99.90;;;;;;5037125;28;20492;-78
2022/08/22 04:29:37;;;;;;;7.55;3.58;;;17.20;99.90;;;;;;5037122;28;20144;-78
2022/08/22 04:32:24;;;;;;;7.45;3.47;;;17.20;99.90;;;;;;5037126;28;20453;-78
2022/08/22 04:35:07;;;;;;;8.38;4.28;;;17.20;99.90;;;;;;5037248;28;20046;-78
2022/08/22 04:37:53;;;;;;;11.27;3.58;;;17.20;99.90;;;;;;5036999;28;20045;-78
2022/08/22 04:40:25;;;;;;;11.70;4.10;;;17.20;99.90;;;;;;5037203;28;20045;-78
2022/08/22 04:43:09;;;;;;;9.57;4.40;;;17.20;99.90;;;;;;5036957;28;20049;-78
2022/08/22 04:45:44;;;;;;;10.48;4.00;;;17.20;99.90;;;;;;5036773;28;20041;-78
2022/08/22 04:48:10;;;;;;;11.32;4.43;;;17.20;99.90;;;;;;5037249;28;20052;-78
2022/08/22 04:50:47;;;;;;;8.73;4.13;;;17.20;99.90;;;;;;5036709;28;20045;-78
2022/08/22 04:53:31;;;;;;;8.98;4.50;;;17.20;99.90;;;;;;5036727;28;20190;-78
2022/08/22 04:56:34;;;;;;;13.00;4.70;;;17.10;99.90;;;;;;5036580;28;20133;-78
2022/08/22 04:59:06;;;;;;;9.20;5.10;;;17.10;99.90;;;;;;5035429;28;20045;-78
2022/08/22 05:01:43;;;;;;;10.82;4.97;;;17.10;99.90;;;;;;5036847;28;20048;-78
2022/08/22 05:04:18;;;;;;;8.05;4.30;;;17.20;99.90;;;;;;5036467;28;20046;-78
2022/08/22 05:06:49;;;;;;;11.35;4.78;;;17.20;99.90;;;;;;5036386;28;20057;-78
2022/08/22 05:09:20;;;;;;;9.15;4.63;;;17.10;99.90;;;;;;5036354;28;20048;-78
2022/08/22 05:11:51;;;;;;;10.27;4.90;;;17.20;99.90;;;;;;5036055;28;20136;-78
2022/08/22 05:14:24;;;;;;;13.05;5.53;;;17.10;99.90;;;;;;5035993;28;20049;-78
2022/08/22 05:16:52;;;;;;;10.70;4.93;;;17.20;99.90;;;;;;5036311;28;20046;-78
2022/08/22 05:19:28;;;;;;;8.85;4.47;;;17.20;99.90;;;;;;5036174;28;20081;-78
2022/08/22 05:21:55;;;;;;;12.95;5.07;;;17.20;99.90;;;;;;5018983;28;20045;-78
2022/08/22 05:24:48;;;;;;;11.55;4.72;;;17.30;99.90;;;;;;5036023;28;20049;-78
2022/08/22 05:27:22;;;;;;;10.32;4.93;;;17.40;99.90;;;;;;5033517;28;20091;-78
2022/08/22 05:29:52;;;;;;;12.05;4.57;;;17.40;99.90;;;;;;5035836;28;20045;-78
2022/08/22 05:32:28;;;;;;;10.48;5.18;;;17.40;99.90;;;;;;5035464;28;20061;-78
2022/08/22 05:34:59;;;;;;;9.65;4.65;;;17.50;99.90;;;;;;5035807;28;20033;-78
2022/08/22 05:37:31;;;;;;;9.77;4.47;;;17.50;99.90;;;;;;5034812;28;20050;-78
2022/08/22 05:39:59;;;;;;;9.27;4.90;;;17.50;99.90;;;;;;5034852;28;20045;-78
2022/08/22 05:42:31;;;;;;;10.38;4.63;;;17.60;99.90;;;;;;5034273;28;20120;-78
2022/08/22 05:45:00;;;;;;;10.93;4.38;;;17.60;99.90;;;;;;5036028;28;20374;-78
2022/08/22 05:47:31;;;;;;;9.80;4.47;;;17.60;99.90;;;;;;5035592;28;20056;-78
2022/08/22 05:50:09;;;;;;;9.32;4.32;;;17.60;99.90;;;;;;5035476;28;20050;-78
2022/08/22 05:53:09;;;;;;;11.30;4.70;;;17.70;99.90;;;;;;5035516;28;20049;-78
2022/08/22 05:55:45;;;;;;;11.65;4.10;;;17.70;99.90;;;;;;4952022;28;20053;-78
2022/08/22 05:58:26;;;;;;;11.30;4.40;;;17.60;99.90;;;;;;5035487;28;20098;-78
2022/08/22 06:01:18;;;;;;;12.18;4.82;;;17.80;99.90;;;;;;5034183;28;20090;-78
2022/08/22 06:03:58;;;;;;;8.25;4.43;;;17.80;99.90;;;;;;5035750;28;20055;-78
2022/08/22 06:06:28;;;;;;;11.20;4.55;;;17.80;99.90;;;;;;5035436;28;20441;-78
2022/08/22 06:09:02;;;;;;;9.85;4.63;;;17.80;99.90;;;;;;5035376;28;20056;-78
2022/08/22 06:11:42;;;;;;;10.65;4.60;;;17.90;99.90;;;;;;5035018;28;20045;-78
2022/08/22 06:14:24;;;;;;;9.70;4.03;;;17.90;99.90;;;;;;5035264;28;20046;-78
2022/08/22 06:17:02;;;;;;;9.52;4.20;;;17.90;99.90;;;;;;5034744;28;20050;-78
2022/08/22 06:19:28;;;;;;;10.02;4.28;;;17.90;99.90;;;;;;5035144;28;20049;-78
2022/08/22 06:21:56;;;;;;;11.35;4.22;;;17.90;99.90;;;;;;5034958;28;20507;-78
2022/08/22 06:24:25;;;;;;;13.55;3.67;;;18.00;99.90;;;;;;5035423;28;20042;-78
2022/08/22 06:26:54;;;;;;;9.95;4.00;;;18.00;99.90;;;;;;5034382;28;20049;-78
2022/08/22 06:29:32;;;;;;;9.35;3.97;;;18.00;99.90;;;;;;5033708;28;20049;-78
2022/08/22 06:32:02;;;;;;;10.80;3.70;;;18.10;99.90;;;;;;5034586;28;20048;-78
2022/08/22 06:34:35;;;;;;;8.63;3.88;;;18.00;99.90;;;;;;5033592;28;20138;-78
2022/08/22 06:37:07;;;;;;;11.48;4.10;;;18.10;99.90;;;;;;5034483;28;20045;-78
2022/08/22 06:39:36;;;;;;;10.55;3.65;;;18.10;99.90;;;;;;5034409;28;20057;-78
2022/08/22 06:42:11;;;;;;;8.38;3.58;;;18.30;99.90;;;;;;5034338;28;20504;-78
2022/08/22 06:44:38;;;;;;;9.27;3.33;;;18.20;99.90;;;;;;5034415;28;20049;-78
2022/08/22 06:47:08;;;;;;;12.25;4.13;;;18.20;99.90;;;;;;5034201;28;20084;-78
2022/08/22 06:49:36;;;;;;;13.05;3.85;;;18.20;99.90;;;;;;5033059;28;20045;-78
2022/08/22 06:52:10;;;;;;;11.65;4.00;;;18.30;99.90;;;;;;5033948;28;20477;-78
2022/08/22 06:54:41;;;;;;;9.35;3.90;;;18.40;99.90;;;;;;5032953;28;20037;-78
2022/08/22 06:57:33;;;;;;;11.68;3.60;;;18.40;99.90;;;;;;5034271;28;20056;-78
2022/08/22 07:00:04;;;;;;;9.07;3.40;;;18.50;99.90;;;;;;5033152;28;20392;-78
2022/08/22 07:02:44;;;;;;;10.55;3.60;;;18.50;99.90;;;;;;5034052;28;20049;-78
2022/08/22 07:05:22;;;;;;;12.00;3.88;;;18.60;99.90;;;;;;5034009;28;20396;-78
2022/08/22 07:07:49;;;;;;;8.77;3.50;;;18.80;99.90;;;;;;5034043;28;20049;-78
2022/08/22 07:10:16;;;;;;;;;;;18.90;99.90;;;;;;5034210;28;20049;-78
2022/08/22 07:12:49;;;;;;;8.23;4.25;;;18.90;99.90;;;;;;5032554;28;19925;-78
2022/08/22 07:15:18;;;;;;;11.95;3.95;;;18.80;99.90;;;;;;5034210;28;20041;-79
2022/08/22 07:17:50;;;;;;;8.40;3.75;;;18.90;99.90;;;;;;5034012;28;20045;-78
2022/08/22 07:20:24;;;;;;;9.27;3.88;;;18.80;99.90;;;;;;5033780;28;20050;-78
2022/08/22 07:23:03;;;;;;;12.80;4.00;;;18.90;99.90;;;;;;5033874;28;20045;-79
2022/08/22 07:25:31;;;;;;;10.27;3.65;;;18.90;99.90;;;;;;5033823;28;20044;-78
2022/08/22 07:28:07;;;;;;;8.68;3.28;;;18.90;99.90;;;;;;5033743;28;20049;-78
2022/08/22 07:31:01;;;;;;;10.35;3.90;;;18.90;99.90;;;;;;5016284;28;20056;-78
2022/08/22 07:33:39;;;;;;;10.80;4.57;;;19.00;99.90;;;;;;5034128;28;20045;-78
2022/08/22 07:36:17;;;;;;;8.30;3.58;;;19.00;99.90;;;;;;5032540;28;20404;-78
2022/08/22 07:38:53;;;;;;;8.25;3.20;;;19.00;99.90;;;;;;5035433;28;20056;-78
2022/08/22 07:41:27;;;;;;;12.52;4.05;;;19.10;99.90;;;;;;5037642;28;20175;-78
2022/08/22 07:44:09;;;;;;;8.63;3.83;;;19.10;99.90;;;;;;5037642;28;20100;-78
2022/08/22 07:46:48;;;;;;;10.07;3.40;;;19.20;99.90;;;;;;5037650;28;20050;-78
2022/08/22 07:49:22;;;;;;;11.40;3.83;;;19.20;99.90;;;;;;5021916;28;20060;-78
2022/08/22 07:52:09;;;;;;;8.02;3.85;;;19.30;99.90;;;;;;5037593;28;20048;-78
2022/08/22 07:54:47;;;;;;;6.82;3.22;;;19.30;99.90;;;;;;5037565;28;20183;-78
2022/08/22 07:57:12;;;;;;;;;;;19.40;99.90;;;;;;5038209;28;20056;-78
2022/08/22 07:59:53;;;;;;;8.57;3.28;;;19.50;99.90;;;;;;5036399;28;20284;-78
2022/08/22 08:02:20;;;;;;;8.95;2.90;;;19.60;99.90;;;;;;5037327;28;20053;-78
2022/08/22 08:04:49;;;;;;;10.82;3.33;;;19.70;99.90;;;;;;5037245;28;20033;-78
2022/08/22 08:07:17;;;;;;;9.82;3.05;;;19.70;99.90;;;;;;5037264;28;20400;-78
2022/08/22 08:09:52;;;;;;;7.97;2.85;;;19.70;99.90;;;;;;5037494;28;20049;-78
2022/08/22 08:12:23;;;;;;;10.38;3.00;;;19.80;99.90;;;;;;5037152;28;20404;-78
2022/08/22 08:14:51;;;;;;;9.98;3.20;;;19.90;99.90;;;;;;5037134;28;20136;-78
2022/08/22 08:17:22;;;;;;;6.13;3.28;;;20.00;99.90;;;;;;5036115;28;20435;-78
2022/08/22 08:19:49;;;;;;;11.48;4.07;;;20.10;99.90;;;;;;5037055;28;20041;-78
2022/08/22 08:22:19;;;;;;;9.82;3.33;;;20.10;99.90;;;;;;5037036;28;20041;-78
2022/08/22 08:24:46;;;;;;;10.45;3.38;;;20.10;99.90;;;;;;5035993;28;20042;-79
2022/08/22 08:30:11;;;;;;;10.55;3.28;;;20.20;99.90;;;;;;5036710;28;20050;-78
2022/08/22 08:32:39;;;;;;;15.10;3.85;;;20.20;99.90;;;;;;5037158;28;20052;-79
2022/08/22 08:35:17;;;;;;;8.90;3.08;;;20.40;99.90;;;;;;5036792;28;20045;-79
2022/08/22 08:37:57;;;;;;;10.45;4.03;;;20.40;99.90;;;;;;5036474;28;20056;-78
2022/08/22 08:40:29;;;;;;;11.38;3.78;;;20.50;99.90;;;;;;5036137;28;20092;-78
2022/08/22 08:43:43;;;;;;;13.90;4.40;;;20.60;99.90;;;;;;5036825;28;20492;-78
2022/08/22 08:46:15;;;;;;;9.07;4.00;;;20.70;99.90;;;;;;5036766;28;20085;-78
2022/08/22 08:49:04;;;;;;;11.88;3.85;;;20.80;99.90;;;;;;5036294;28;20085;-78
2022/08/22 08:52:08;;;;;;;8.88;3.10;;;20.80;99.90;;;;;;5036799;28;20495;-78
2022/08/22 08:55:14;;;;;;;11.35;3.83;;;20.90;99.90;;;;;;5013073;28;20449;-78
2022/08/22 08:58:10;;;;;;;9.90;3.67;;;21.10;99.90;;;;;;4966490;28;20066;-78
2022/08/22 09:00:49;;;;;;;11.35;3.60;;;21.20;99.90;;;;;;5036599;28;20049;-78
2022/08/22 09:03:55;;;;;;;8.07;3.00;;;21.20;99.90;;;;;;5036508;28;20120;-78
2022/08/22 09:06:52;;;;;;;8.50;2.78;;;21.30;99.90;;;;;;5036695;28;20373;-78
2022/08/22 09:09:39;;;;;;;7.15;2.67;;;21.40;99.90;;;;;;5031634;28;20054;-78
2022/08/22 09:12:20;;;;;;;9.07;2.90;;;21.40;99.90;;;;;;5018779;28;20053;-78
2022/08/22 09:15:11;;;;;;;9.70;2.92;;;21.50;99.90;;;;;;5036290;28;20053;-78
2022/08/22 09:18:05;;;;;;;11.82;3.08;;;21.50;99.90;;;;;;5036149;28;20091;-78
2022/08/22 09:21:06;;;;;;;10.10;2.72;;;21.50;99.90;;;;;;5027752;28;20061;-78
2022/08/22 09:24:31;;;;;;;11.93;2.75;;;21.60;99.90;;;;;;5032899;28;20057;-78
2022/08/22 09:27:00;;;;;;;10.10;2.47;;;21.60;99.90;;;;;;4975002;28;20046;-78
2022/08/22 09:29:54;;;;;;;8.15;2.38;;;21.70;99.90;;;;;;4974803;28;20101;-78
2022/08/22 09:32:41;;;;;;;8.18;2.67;;;21.70;99.90;;;;;;5009807;28;20049;-78
2022/08/22 09:35:28;;;;;;;8.70;2.80;;;21.90;99.90;;;;;;5036314;28;20046;-78
2022/08/22 09:38:18;;;;;;;9.60;2.25;;;21.90;99.90;;;;;;5035982;28;20384;-79
2022/08/22 09:41:02;;;;;;;9.57;3.10;;;22.00;99.90;;;;;;5035705;28;20172;-79
2022/08/22 09:44:12;;;;;;;5.82;1.92;;;22.20;99.90;;;;;;5036309;28;20095;-78
2022/08/22 09:46:48;;;;;;;6.05;2.00;;;22.40;99.90;;;;;;5020296;28;20057;-78
2022/08/22 09:49:34;;;;;;;6.35;2.38;;;22.50;99.90;;;;;;5036079;28;20048;-78
2022/08/22 09:52:27;;;;;;;8.63;2.50;;;22.40;99.90;;;;;;5036063;28;20046;-78
2022/08/22 09:55:03;;;;;;;10.25;2.45;;;22.40;99.90;;;;;;5035747;28;20128;-78
2022/08/22 09:57:41;;;;;;;9.10;2.20;;;22.40;99.90;;;;;;5034571;28;20045;-78
2022/08/22 10:00:37;;;;;;;8.10;2.42;;;22.40;99.90;;;;;;5035254;28;20049;-78
2022/08/22 10:03:17;;;;;;;8.05;2.38;;;22.50;99.90;;;;;;5024257;28;20100;-78
2022/08/22 10:05:45;;;;;;;9.68;2.60;;;22.60;99.90;;;;;;5034021;28;20053;-78
2022/08/22 10:08:22;;;;;;;7.28;2.50;;;22.70;99.90;;;;;;5034017;28;20049;-78
2022/08/22 10:10:54;;;;;;;5.18;1.80;;;22.70;99.90;;;;;;5035591;28;20045;-78
2022/08/22 10:13:31;;;;;;;7.18;2.10;;;22.60;99.90;;;;;;5035398;28;20104;-78
2022/08/22 10:16:24;;;;;;;9.05;2.50;;;22.80;99.90;;;;;;5035181;28;20050;-78
2022/08/22 10:19:06;;;;;;;5.10;2.00;;;22.80;99.90;;;;;;4998416;28;20112;-78
2022/08/22 10:21:45;;;;;;;6.40;2.08;;;22.80;99.90;;;;;;5018050;28;20053;-78
2022/08/22 10:24:36;;;;;;;7.82;2.13;;;22.90;99.90;;;;;;5034943;28;20041;-78
2022/08/22 10:27:07;;;;;;;7.07;2.30;;;23.00;99.90;;;;;;5024951;28;20507;-78
2022/08/22 10:29:51;;;;;;;6.80;2.25;;;23.10;99.90;;;;;;5034028;28;20100;-78
2022/08/22 10:32:41;;;;;;;8.57;2.33;;;23.20;99.90;;;;;;5034750;28;20494;-78
2022/08/22 10:35:32;;;;;;;9.50;2.20;;;23.40;99.90;;;;;;5033910;28;20092;-78
2022/08/22 10:37:59;;;;;;;8.68;2.15;;;23.50;99.90;;;;;;5006328;28;20103;-78
2022/08/22 10:40:50;;;;;;;6.88;2.00;;;23.50;99.90;;;;;;5034627;28;20404;-78
2022/08/22 10:43:28;;;;;;;8.50;2.08;;;23.60;99.90;;;;;;5034607;28;20046;-78
2022/08/22 10:46:09;;;;;;;7.22;2.17;;;23.60;99.90;;;;;;5034220;28;20481;-78
2022/08/22 10:48:55;;;;;;;9.02;1.95;;;23.60;99.90;;;;;;5033838;28;20049;-78
2022/08/22 10:51:36;;;;;;;6.13;2.28;;;23.90;99.90;;;;;;5034237;28;20571;-78
2022/08/22 10:54:24;;;;;;;6.95;2.17;;;24.00;99.90;;;;;;5034876;28;20493;-78
2022/08/22 10:57:10;;;;;;;7.68;2.05;;;23.90;99.90;;;;;;5034682;28;20436;-78
2022/08/22 10:59:48;;;;;;;6.80;2.05;;;23.90;99.90;;;;;;5034292;28;20050;-78
2022/08/22 11:02:32;;;;;;;7.47;2.20;;;23.80;99.90;;;;;;5034331;28;20060;-78
2022/08/22 11:05:17;;;;;;;7.72;2.25;;;23.90;99.90;;;;;;5034120;28;20041;-78
2022/08/22 11:07:57;;;;;;;8.52;1.95;;;24.00;99.90;;;;;;5034567;28;20239;-78
2022/08/22 11:10:31;;;;;;;6.88;1.83;;;24.10;99.90;;;;;;5034329;28;20049;-78
2022/08/22 11:13:28;;;;;;;6.75;2.33;;;24.30;99.90;;;;;;5034039;28;20068;-78
2022/08/22 11:16:29;;;;;;;6.78;2.40;;;24.40;99.90;;;;;;5033580;28;20061;-78
2022/08/22 11:19:17;;;;;;;5.63;2.20;;;24.50;99.90;;;;;;5034172;28;20132;-78
2022/08/22 11:22:13;;;;;;;7.57;2.35;;;24.50;99.90;;;;;;5033706;28;20411;-78
2022/08/22 11:25:05;;;;;;;11.57;2.58;;;24.50;99.90;;;;;;5033887;28;20469;-78
2022/08/22 11:27:33;;;;;;;6.82;2.30;;;24.50;99.90;;;;;;5034188;28;20042;-78
2022/08/22 11:30:13;;;;;;;9.68;2.50;;;24.50;99.90;;;;;;5033652;28;20042;-78
2022/08/22 11:33:07;;;;;;;9.45;2.67;;;24.60;99.90;;;;;;5033744;28;20085;-78
2022/08/22 11:35:43;;;;;;;8.18;2.38;;;24.60;99.90;;;;;;5033410;28;20060;-78
2022/08/22 11:38:27;;;;;;;7.00;1.85;;;24.60;99.90;;;;;;5032505;28;20045;-78
2022/08/22 11:41:03;;;;;;;8.70;2.15;;;24.80;99.90;;;;;;5033501;28;20646;-78
2022/08/22 11:43:46;;;;;;;9.10;2.17;;;24.90;99.90;;;;;;5033669;28;20091;-78
2022/08/22 11:46:23;;;;;;;6.07;2.20;;;24.90;99.90;;;;;;5033436;28;20050;-78
2022/08/22 11:49:22;;;;;;;10.07;2.65;;;25.00;99.90;;;;;;5033635;28;20100;-78
2022/08/22 11:52:09;;;;;;;9.85;2.20;;;25.00;99.90;;;;;;5033858;28;20387;-78
2022/08/22 11:54:46;;;;;;;9.88;2.30;;;25.20;99.90;;;;;;5033573;28;20373;-78
2022/08/22 11:57:22;;;;;;;9.45;2.25;;;25.20;99.90;;;;;;5033293;28;20484;-78
2022/08/22 12:00:13;;;;;;;5.57;2.17;;;25.40;99.90;;;;;;5033230;28;20485;-78
2022/08/22 12:03:16;;;;;;;9.70;2.17;;;25.50;99.90;;;;;;5033586;28;20502;-78
2022/08/22 12:06:03;;;;;;;10.50;3.00;;;25.60;99.90;;;;;;5033708;28;20064;-78
2022/08/22 12:08:32;;;;;;;11.52;2.92;;;25.80;99.90;;;;;;5033422;28;20045;-78
2022/08/22 12:11:12;;;;;;;7.53;2.10;;;25.90;99.90;;;;;;5032420;28;20057;-78
2022/08/22 12:14:03;;;;;;;9.27;2.30;;;25.90;99.90;;;;;;5032180;28;20057;-78
2022/08/22 12:16:50;;;;;;;7.20;2.60;;;26.00;99.90;;;;;;5033583;28;20044;-78
2022/08/22 12:19:47;;;;;;;9.40;2.45;;;25.90;99.90;;;;;;5032019;28;20136;-78
2022/08/22 12:22:43;;;;;;;6.38;2.15;;;26.00;99.90;;;;;;5033326;28;20136;-78
2022/08/22 12:25:20;;;;;;;9.27;2.55;;;26.00;99.90;;;;;;5034526;28;20550;-79
2022/08/22 12:27:45;;;;;;;;;;;26.20;99.90;;;;;;5037251;28;20052;-78
2022/08/22 12:30:28;;;;;;;8.75;2.50;;;26.30;99.90;;;;;;5035696;28;20019;-78
2022/08/22 12:33:33;;;;;;;9.13;2.40;;;26.30;99.60;;;;;;5036820;28;20045;-78
2022/08/22 12:36:04;;;;;;;6.13;2.50;;;26.40;99.90;;;;;;5025724;28;20465;-78
2022/08/22 12:39:10;;;;;;;9.10;2.28;;;26.30;99.80;;;;;;5036663;28;20103;-79
2022/08/22 12:42:13;;;;;;;6.18;2.30;;;26.30;99.60;;;;;;5036685;28;20049;-78
2022/08/22 12:45:02;;;;;;;5.53;1.98;;;26.20;99.70;;;;;;5036425;28;20404;-78
2022/08/22 12:47:34;;;;;;;6.70;2.00;;;26.20;99.90;;;;;;5036934;28;20045;-78
2022/08/22 12:50:18;;;;;;;6.50;2.05;;;26.20;99.20;;;;;;5035471;28;20083;-78
2022/08/22 12:52:49;;;;;;;9.00;2.25;;;26.20;98.80;;;;;;5036559;28;20095;-78
2022/08/22 12:55:22;;;;;;;9.07;2.38;;;26.30;99.00;;;;;;5036906;28;20087;-78
2022/08/22 12:58:00;;;;;;;6.57;2.00;;;26.30;98.80;;;;;;5036770;28;20041;-78
2022/08/22 13:00:39;;;;;;;8.30;2.30;;;26.50;99.70;;;;;;5036081;28;20554;-78
2022/08/22 13:03:16;;;;;;;7.00;2.17;;;26.50;98.70;;;;;;5036389;28;20068;-78
2022/08/22 13:05:46;;;;;;;5.88;2.10;;;26.60;98.90;;;;;;5036207;28;20041;-78
2022/08/22 13:08:19;;;;;;;8.88;2.00;;;26.50;97.80;;;;;;5036114;28;20045;-78
2022/08/22 13:10:57;;;;;;;8.38;2.22;;;26.50;98.40;;;;;;5036352;28;20047;-78
2022/08/22 13:13:40;;;;;;;7.22;2.28;;;26.50;97.80;;;;;;5036040;28;20116;-78
2022/08/22 13:16:15;;;;;;;7.45;2.10;;;26.50;98.10;;;;;;5035906;28;20491;-78
2022/08/22 13:18:49;;;;;;;4.85;1.80;;;26.40;97.00;;;;;;5036146;28;20047;-78
2022/08/22 13:21:17;;;;;;;5.88;1.70;;;26.40;97.10;;;;;;5035965;28;20098;-78
2022/08/22 13:23:47;;;;;;;8.45;2.03;;;26.40;97.90;;;;;;5035797;28;20124;-78
2022/08/22 13:26:30;;;;;;;5.38;2.25;;;26.40;98.00;;;;;;5035777;28;20133;-78
2022/08/22 13:29:00;;;;;;;7.65;1.88;;;26.40;98.00;;;;;;5036181;28;20495;-78
2022/08/22 13:31:32;;;;;;;5.03;1.88;;;26.40;97.00;;;;;;5035700;28;20464;-78
2022/08/22 13:34:02;;;;;;;5.10;1.65;;;26.40;96.00;;;;;;5034436;28;20060;-79
2022/08/22 13:36:33;;;;;;;3.83;1.40;;;26.50;96.30;;;;;;5035649;28;20124;-78
2022/08/22 13:39:13;;;;;;;5.75;1.60;;;26.50;95.20;;;;;;5035594;28;20081;-78
2022/08/22 13:41:48;;;;;;;5.25;1.60;;;26.60;95.30;;;;;;5036028;28;20053;-78
2022/08/22 13:44:25;;;;;;;6.82;2.17;;;26.60;95.30;;;;;;5035394;28;20045;-78
2022/08/22 13:46:52;;;;;;;5.22;1.80;;;26.50;94.20;;;;;;5035552;28;20049;-78
2022/08/22 13:49:37;;;;;;;6.80;2.10;;;26.50;95.10;;;;;;5017566;28;20095;-78
2022/08/22 13:52:25;;;;;;;5.95;2.00;;;26.50;94.80;;;;;;5035654;28;20049;-78
2022/08/22 13:54:56;;;;;;;4.85;1.92;;;26.60;95.00;;;;;;5035372;28;20046;-78
2022/08/22 13:57:33;;;;;;;5.40;1.52;;;26.60;94.80;;;;;;5035252;28;20396;-78
2022/08/22 14:00:12;;;;;;;7.63;2.00;;;26.70;94.40;;;;;;5034241;28;20045;-78